Time;durP1;ratioP1;P1;durP2;ratioP2;P2;SDS_P1;SDS_P2;PMS_P1;PMS_P2;Temp;Humidity;BMP_temperature;BMP_pressure;BME280_temperature;BME280_humidity;BME280_pressure;Samples;Min_cycle;Max_cycle;Signal;HPM_P1;HPM_P2
2021/03/04 00:00:13;;;;;;;18.66;10.70;;;;;;;12.78;60.62;101813.06;350861;28;2038;-66
2021/03/04 00:00:27;;;;;;;19.65;10.43;;;;;;;12.74;60.12;101814.97;348557;28;71574;-66
2021/03/04 00:00:39;;;;;;;19.50;10.48;;;;;;;12.69;60.04;101807.22;349328;28;47791;-66
2021/03/04 00:00:50;;;;;;;18.25;10.52;;;;;;;12.73;61.93;101810.59;350790;28;1081;-66
2021/03/04 00:01:02;;;;;;;17.88;10.40;;;;;;;12.75;61.67;101811.41;350697;28;1061;-67
2021/03/04 00:01:13;;;;;;;18.85;10.27;;;;;;;12.77;61.83;101811.34;350882;28;1096;-68
2021/03/04 00:01:24;;;;;;;19.23;10.43;;;;;;;12.72;61.06;101812.38;350789;28;1113;-68
2021/03/04 00:01:36;;;;;;;19.33;10.48;;;;;;;12.75;61.47;101807.88;350849;28;1105;-68
2021/03/04 00:01:47;;;;;;;19.23;10.40;;;;;;;12.75;61.31;101816.69;350848;28;1061;-65
2021/03/04 00:01:58;;;;;;;20.32;10.58;;;;;;;12.76;63.36;101812.25;350698;28;1185;-65
2021/03/04 00:02:10;;;;;;;21.27;10.43;;;;;;;12.76;62.91;101812.25;350859;28;1109;-65
2021/03/04 00:02:21;;;;;;;20.94;10.38;;;;;;;12.73;63.30;101813.22;350803;28;1088;-65
2021/03/04 00:02:32;;;;;;;16.73;10.38;;;;;;;12.75;64.41;101810.50;350817;28;1155;-65
2021/03/04 00:02:44;;;;;;;17.15;10.35;;;;;;;12.78;64.57;101811.28;350901;28;1072;-66
2021/03/04 00:02:59;;;;;;;17.63;10.27;;;;;;;12.80;64.69;101811.22;349176;28;49051;-65
2021/03/04 00:03:10;;;;;;;18.15;10.30;;;;;;;12.78;64.69;101808.63;350922;28;1412;-65
2021/03/04 00:03:21;;;;;;;18.17;10.07;;;;;;;12.76;63.65;101812.25;350928;28;1082;-66
2021/03/04 00:03:32;;;;;;;17.25;9.55;;;;;;;12.69;64.17;101808.97;350957;28;1028;-65
2021/03/04 00:03:44;;;;;;;15.75;8.80;;;;;;;12.47;61.61;101811.59;350827;28;1208;-65
2021/03/04 00:03:55;;;;;;;14.25;8.10;;;;;;;12.24;60.98;101810.69;350740;28;987;-65
2021/03/04 00:04:06;;;;;;;14.77;8.30;;;;;;;12.24;63.44;101805.38;350867;28;1131;-66
2021/03/04 00:04:17;;;;;;;14.63;8.98;;;;;;;12.20;63.78;101809.91;350790;28;1204;-65
2021/03/04 00:04:28;;;;;;;16.02;9.57;;;;;;;12.24;64.68;101810.69;350765;28;1037;-66
2021/03/04 00:04:39;;;;;;;16.20;9.73;;;;;;;12.31;65.19;101804.22;350806;28;1069;-66
2021/03/04 00:04:50;;;;;;;18.05;9.88;;;;;;;12.34;64.46;101803.25;349289;28;1073;-66
2021/03/04 00:05:02;;;;;;;17.25;9.80;;;;;;;12.41;66.72;101806.53;349417;28;1138;-66
2021/03/04 00:05:15;;;;;;;18.13;10.05;;;;;;;12.46;66.52;101801.91;349429;28;1161;-66
2021/03/04 00:05:26;;;;;;;17.42;9.85;;;;;;;12.47;66.60;101806.28;349377;28;1217;-66
2021/03/04 00:05:37;;;;;;;18.35;10.15;;;;;;;12.51;67.85;101807.91;349782;28;1097;-65
2021/03/04 00:05:48;;;;;;;17.17;9.88;;;;;;;12.53;68.72;101806.06;350691;28;1771;-67
2021/03/04 00:06:00;;;;;;;16.13;9.88;;;;;;;12.52;68.28;101802.53;350813;28;1174;-65
2021/03/04 00:06:11;;;;;;;15.25;9.77;;;;;;;12.55;69.28;101805.06;350869;28;1099;-66
2021/03/04 00:06:22;;;;;;;15.50;9.85;;;;;;;12.56;69.35;101795.34;350789;28;1141;-66
2021/03/04 00:06:33;;;;;;;15.68;9.38;;;;;;;12.39;64.87;101795.97;349330;28;1190;-65
2021/03/04 00:06:44;;;;;;;16.63;8.75;;;;;;;12.22;64.23;101793.97;349785;28;1154;-65
2021/03/04 00:06:55;;;;;;;16.70;8.40;;;;;;;12.22;63.47;101792.16;350853;28;1013;-66
2021/03/04 00:07:07;;;;;;;15.50;8.77;;;;;;;12.26;63.54;101802.69;349388;28;1136;-66
2021/03/04 00:07:18;;;;;;;15.73;9.30;;;;;;;12.31;65.25;101790.09;349359;28;1906;-66
2021/03/04 00:07:29;;;;;;;16.30;9.38;;;;;;;12.37;65.56;101790.72;349396;28;1068;-65
2021/03/04 00:07:40;;;;;;;17.80;9.15;;;;;;;12.28;65.35;101790.22;349376;28;1362;-66
2021/03/04 00:07:52;;;;;;;17.85;9.27;;;;;;;12.30;64.39;101789.25;349324;28;1085;-66
2021/03/04 00:08:04;;;;;;;17.50;8.94;;;;;;;12.29;64.86;101786.66;349404;28;1139;-66
2021/03/04 00:08:15;;;;;;;17.08;8.95;;;;;;;12.24;63.88;101785.97;349446;28;1128;-65
2021/03/04 00:08:26;;;;;;;15.57;8.77;;;;;;;12.10;64.06;101789.13;349548;28;2052;-66
2021/03/04 00:08:37;;;;;;;15.43;8.88;;;;;;;12.11;64.49;101780.25;350707;28;1139;-65
2021/03/04 00:08:48;;;;;;;15.46;8.80;;;;;;;12.14;63.78;101788.09;350843;28;1147;-66
2021/03/04 00:09:00;;;;;;;15.13;9.02;;;;;;;12.18;65.44;101784.41;350823;28;1130;-65
2021/03/04 00:09:11;;;;;;;15.20;9.23;;;;;;;12.24;66.79;101783.31;350959;28;1064;-66
2021/03/04 00:09:22;;;;;;;14.65;9.55;;;;;;;12.27;67.09;101778.78;350913;28;1147;-66
2021/03/04 00:09:33;;;;;;;15.68;9.02;;;;;;;12.30;67.85;101781.28;350897;28;1073;-66
2021/03/04 00:09:44;;;;;;;16.85;8.88;;;;;;;12.34;67.52;101784.72;350929;28;1122;-66
2021/03/04 00:09:55;;;;;;;16.38;9.07;;;;;;;12.35;67.03;101782.00;350959;28;1076;-66
2021/03/04 00:10:15;;;;;;;15.27;8.98;;;;;;;12.31;66.74;101780.38;350914;28;1096;-66
2021/03/04 00:10:28;;;;;;;16.95;8.80;;;;;;;12.32;65.74;101786.53;348316;28;71895;-65
2021/03/04 00:10:39;;;;;;;17.05;8.98;;;;;;;12.33;67.43;101778.53;350946;28;1097;-66
2021/03/04 00:10:50;;;;;;;15.60;8.77;;;;;;;12.35;67.77;101782.00;350977;28;1008;-68
2021/03/04 00:11:01;;;;;;;14.85;8.95;;;;;;;12.36;67.75;101786.38;350974;28;1084;-66
2021/03/04 00:11:13;;;;;;;13.82;9.20;;;;;;;12.39;68.89;101782.72;350863;28;1249;-66
2021/03/04 00:11:24;;;;;;;13.77;9.20;;;;;;;12.41;69.05;101780.03;350711;28;1122;-66
2021/03/04 00:11:35;;;;;;;14.77;9.18;;;;;;;12.43;67.90;101786.13;350826;28;1441;-66
2021/03/04 00:11:46;;;;;;;15.50;8.77;;;;;;;12.43;66.79;101788.78;350784;28;1122;-66
2021/03/04 00:11:57;;;;;;;16.55;8.95;;;;;;;12.43;67.73;101786.13;350860;28;1052;-66
2021/03/04 00:12:08;;;;;;;17.02;9.20;;;;;;;12.43;67.35;101783.47;350877;28;1040;-66
2021/03/04 00:12:20;;;;;;;17.08;9.20;;;;;;;12.44;67.08;101785.22;349285;28;1135;-65
2021/03/04 00:12:31;;;;;;;17.00;9.27;;;;;;;12.47;66.08;101785.09;349408;28;1148;-66
2021/03/04 00:12:43;;;;;;;18.92;9.60;;;;;;;12.46;67.05;101783.34;348027;28;1137;-66
2021/03/04 00:12:55;;;;;;;18.70;9.95;;;;;;;12.45;66.64;101789.59;348063;28;1155;-66
2021/03/04 00:13:06;;;;;;;18.92;9.93;;;;;;;12.42;66.25;101782.63;348243;28;1193;-65
2021/03/04 00:13:17;;;;;;;18.38;9.43;;;;;;;12.38;65.63;101788.97;349318;28;1133;-65
2021/03/04 00:13:28;;;;;;;15.55;8.57;;;;;;;12.40;65.80;101787.09;349377;28;1081;-66
2021/03/04 00:13:40;;;;;;;14.25;8.30;;;;;;;12.39;65.39;101778.31;349415;28;1201;-66
2021/03/04 00:13:51;;;;;;;13.30;8.25;;;;;;;12.31;64.01;101785.69;349439;28;1006;-66
2021/03/04 00:14:02;;;;;;;13.13;8.50;;;;;;;12.21;63.06;101792.22;349368;28;1102;-65
2021/03/04 00:14:13;;;;;;;14.55;8.63;;;;;;;12.24;64.95;101786.84;349711;28;1081;-66
2021/03/04 00:14:24;;;;;;;14.27;8.30;;;;;;;12.23;63.51;101785.09;350872;28;1070;-65
2021/03/04 00:14:35;;;;;;;13.45;8.00;;;;;;;12.25;64.30;101790.34;350802;28;1096;-64
2021/03/04 00:14:46;;;;;;;13.20;8.00;;;;;;;12.24;62.16;101792.13;350866;28;1076;-65
2021/03/04 00:14:57;;;;;;;13.88;8.00;;;;;;;12.26;63.14;101784.97;350702;28;1088;-65
2021/03/04 00:15:30;;;;;;;15.60;7.93;;;;;;;12.19;61.51;101791.44;348452;28;70071;-67
2021/03/04 00:15:41;;;;;;;14.75;8.10;;;;;;;12.14;62.02;101793.38;348521;28;69900;-66
2021/03/04 00:15:54;;;;;;;12.80;7.95;;;;;;;12.17;61.78;101787.97;350928;28;1099;-65
2021/03/04 00:16:05;;;;;;;12.77;7.90;;;;;;;12.21;62.29;101784.28;350879;28;1090;-67
2021/03/04 00:16:17;;;;;;;12.73;7.97;;;;;;;12.23;64.37;101782.47;350973;28;1151;-66
2021/03/04 00:16:28;;;;;;;15.10;7.85;;;;;;;12.25;65.09;101785.03;350993;28;1064;-66
2021/03/04 00:16:39;;;;;;;17.63;7.70;;;;;;;12.27;64.82;101789.38;350973;28;1462;-66
2021/03/04 00:16:50;;;;;;;16.70;8.02;;;;;;;12.30;64.79;101789.25;350934;28;1064;-66
2021/03/04 00:17:02;;;;;;;15.55;8.02;;;;;;;12.31;66.82;101784.81;350909;28;1166;-66
2021/03/04 00:17:14;;;;;;;15.68;8.23;;;;;;;12.35;66.35;101786.41;350927;28;1088;-65
2021/03/04 00:17:25;;;;;;;18.02;8.45;;;;;;;12.35;66.39;101787.28;350922;28;1095;-66
2021/03/04 00:17:37;;;;;;;17.27;8.45;;;;;;;12.35;66.91;101786.41;350951;28;1118;-66
2021/03/04 00:17:49;;;;;;;14.82;8.18;;;;;;;12.32;65.81;101781.22;350655;28;1737;-66
2021/03/04 00:18:00;;;;;;;11.27;7.78;;;;;;;12.35;66.32;101786.41;350819;28;1108;-65
2021/03/04 00:18:12;;;;;;;13.73;7.82;;;;;;;12.33;65.59;101781.19;350844;28;1151;-66
2021/03/04 00:18:23;;;;;;;15.35;7.80;;;;;;;12.33;64.85;101785.63;350858;28;1156;-66
2021/03/04 00:18:35;;;;;;;15.93;8.20;;;;;;;12.33;65.37;101781.19;350794;28;1087;-66
2021/03/04 00:18:46;;;;;;;15.55;8.45;;;;;;;12.32;65.91;101776.81;350625;28;1024;-66
2021/03/04 00:18:57;;;;;;;16.73;8.40;;;;;;;12.33;65.25;101789.13;350783;28;1138;-64
2021/03/04 00:19:09;;;;;;;16.55;8.07;;;;;;;12.25;64.11;101782.41;350831;28;1084;-65
2021/03/04 00:19:21;;;;;;;15.73;8.00;;;;;;;12.21;64.66;101786.94;350727;28;1152;-66
2021/03/04 00:19:32;;;;;;;14.38;7.93;;;;;;;12.23;65.14;101790.41;350766;28;1009;-66
2021/03/04 00:19:43;;;;;;;14.75;8.10;;;;;;;12.25;64.47;101788.53;350753;28;1132;-66
2021/03/04 00:19:54;;;;;;;16.27;8.05;;;;;;;12.25;65.55;101785.91;350801;28;1064;-66
2021/03/04 00:20:11;;;;;;;15.50;8.13;;;;;;;12.24;65.21;101785.97;350953;28;1140;-66
2021/03/04 00:20:25;;;;;;;15.30;8.13;;;;;;;12.09;64.30;101787.38;348560;28;71551;-66
2021/03/04 00:20:37;;;;;;;14.98;8.20;;;;;;;12.13;64.72;101789.00;349222;28;48293;-65
2021/03/04 00:20:49;;;;;;;14.88;8.50;;;;;;;12.15;65.57;101781.88;350918;28;1072;-66
2021/03/04 00:21:00;;;;;;;15.57;8.60;;;;;;;12.16;65.07;101780.97;350935;28;1084;-65
2021/03/04 00:21:11;;;;;;;15.40;8.50;;;;;;;12.18;64.90;101784.41;350959;28;1060;-68
2021/03/04 00:21:22;;;;;;;16.08;8.10;;;;;;;12.21;65.05;101786.94;350978;28;1132;-68
2021/03/04 00:21:33;;;;;;;17.45;8.10;;;;;;;12.19;64.61;101779.03;350836;28;1073;-67
2021/03/04 00:21:44;;;;;;;17.83;8.35;;;;;;;12.20;65.41;101772.00;350938;28;1115;-66
2021/03/04 00:21:55;;;;;;;16.23;8.02;;;;;;;12.19;65.16;101783.50;350869;28;1126;-67
2021/03/04 00:22:06;;;;;;;13.63;7.60;;;;;;;12.07;63.53;101782.16;350704;28;1126;-66
2021/03/04 00:22:17;;;;;;;13.82;7.72;;;;;;;12.00;64.20;101778.84;350820;28;1140;-67
2021/03/04 00:22:29;;;;;;;15.40;7.93;;;;;;;12.06;65.55;101785.72;350769;28;1069;-65
2021/03/04 00:22:40;;;;;;;16.10;7.88;;;;;;;12.08;64.88;101783.88;350680;28;1240;-66
2021/03/04 00:22:51;;;;;;;12.95;7.63;;;;;;;12.08;66.10;101778.59;350881;28;1111;-66
2021/03/04 00:23:02;;;;;;;12.73;7.45;;;;;;;12.00;64.29;101783.31;350804;28;1189;-65
2021/03/04 00:23:13;;;;;;;15.15;7.85;;;;;;;12.02;65.41;101781.44;350848;28;1053;-66
2021/03/04 00:23:25;;;;;;;15.77;8.00;;;;;;;12.06;65.55;101780.41;350696;28;1200;-66
2021/03/04 00:23:36;;;;;;;13.70;7.78;;;;;;;12.07;65.41;101776.84;349411;28;1033;-66
2021/03/04 00:23:47;;;;;;;14.07;7.50;;;;;;;12.05;64.50;101773.41;349426;28;1046;-66
2021/03/04 00:23:58;;;;;;;15.50;7.70;;;;;;;11.90;63.67;101782.75;349436;28;1152;-66
2021/03/04 00:24:09;;;;;;;15.93;7.82;;;;;;;11.81;64.61;101777.78;350779;28;1006;-66
2021/03/04 00:24:20;;;;;;;14.88;7.90;;;;;;;11.84;64.25;101786.47;350703;28;1224;-65
2021/03/04 00:24:31;;;;;;;14.45;7.88;;;;;;;11.89;64.36;101779.22;350724;28;1178;-66
2021/03/04 00:24:42;;;;;;;14.30;7.60;;;;;;;11.93;64.65;101782.63;350658;28;1056;-66
2021/03/04 00:24:54;;;;;;;14.65;7.72;;;;;;;11.94;64.93;101784.41;350772;28;1130;-66
2021/03/04 00:25:06;;;;;;;15.75;7.90;;;;;;;11.98;65.98;101783.38;350834;28;1137;-65
2021/03/04 00:25:20;;;;;;;15.82;7.66;;;;;;;11.92;64.57;101777.38;350755;28;1171;-66
2021/03/04 00:25:35;;;;;;;16.20;7.75;;;;;;;11.78;64.96;101784.03;348387;28;70941;-66
2021/03/04 00:25:46;;;;;;;14.80;7.75;;;;;;;11.72;63.77;101781.63;350852;28;1122;-65
2021/03/04 00:25:58;;;;;;;13.07;7.35;;;;;;;11.68;63.96;101774.72;350946;28;1100;-66
2021/03/04 00:26:09;;;;;;;13.55;7.55;;;;;;;11.73;64.76;101780.69;350892;28;1052;-65
2021/03/04 00:26:20;;;;;;;14.07;7.47;;;;;;;11.78;65.47;101777.88;350935;28;1156;-66
2021/03/04 00:26:31;;;;;;;12.68;7.60;;;;;;;11.85;65.95;101772.28;350999;28;1155;-66
2021/03/04 00:26:43;;;;;;;14.32;7.25;;;;;;;11.82;65.27;101782.16;350837;28;1163;-67
2021/03/04 00:26:54;;;;;;;15.52;7.05;;;;;;;11.82;64.25;101776.88;350924;28;1097;-66
2021/03/04 00:27:06;;;;;;;17.60;7.40;;;;;;;11.88;64.63;101772.22;350912;28;1119;-65
2021/03/04 00:27:17;;;;;;;16.50;7.70;;;;;;;11.92;64.95;101780.88;350882;28;1044;-66
2021/03/04 00:27:28;;;;;;;16.08;7.97;;;;;;;11.91;63.95;101778.31;350962;28;1053;-67
2021/03/04 00:27:40;;;;;;;15.54;7.58;;;;;;;11.91;65.55;101776.53;350876;28;1965;-66
2021/03/04 00:27:51;;;;;;;13.85;7.35;;;;;;;11.94;64.50;101783.47;350952;28;1068;-67
2021/03/04 00:28:03;;;;;;;14.98;7.50;;;;;;;11.99;65.76;101779.81;350855;28;1416;-66
2021/03/04 00:28:14;;;;;;;13.85;7.70;;;;;;;11.96;65.80;101774.59;350847;28;1213;-66
2021/03/04 00:28:26;;;;;;;12.65;7.55;;;;;;;11.96;65.31;101777.25;350903;28;1069;-66
2021/03/04 00:28:37;;;;;;;12.88;7.35;;;;;;;11.96;64.50;101782.53;351005;28;1107;-65
2021/03/04 00:28:48;;;;;;;13.07;7.38;;;;;;;11.97;64.09;101776.34;350872;28;1065;-66
2021/03/04 00:28:59;;;;;;;15.10;7.57;;;;;;;12.01;63.65;101774.44;350892;28;1069;-66
2021/03/04 00:29:12;;;;;;;17.33;7.82;;;;;;;12.00;64.35;101776.22;350832;28;1069;-66
2021/03/04 00:29:24;;;;;;;17.38;7.88;;;;;;;12.01;65.69;101777.94;349968;28;25334;-66
2021/03/04 00:29:35;;;;;;;14.57;7.82;;;;;;;12.02;64.91;101777.03;350930;28;1076;-67
2021/03/04 00:29:46;;;;;;;14.27;7.68;;;;;;;12.05;65.16;101774.25;350853;28;1069;-65
2021/03/04 00:29:57;;;;;;;14.72;7.44;;;;;;;12.04;65.22;101774.31;350615;28;1142;-64
2021/03/04 00:30:10;;;;;;;14.23;7.65;;;;;;;12.07;64.86;101770.72;350845;28;1076;-65
2021/03/04 00:30:22;;;;;;;14.80;7.68;;;;;;;12.05;65.00;101771.63;350680;28;1112;-64
2021/03/04 00:30:33;;;;;;;14.32;7.78;;;;;;;12.05;64.14;101774.25;350664;28;1699;-65
2021/03/04 00:30:45;;;;;;;15.05;7.85;;;;;;;12.07;65.13;101776.00;350723;28;1134;-65
2021/03/04 00:30:56;;;;;;;13.88;7.93;;;;;;;12.08;65.50;101775.09;350653;28;1182;-69
2021/03/04 00:31:11;;;;;;;15.07;7.85;;;;;;;12.08;65.70;101773.28;349199;28;49172;-66
2021/03/04 00:31:22;;;;;;;16.83;7.90;;;;;;;12.05;63.63;101771.63;349356;28;1106;-65
2021/03/04 00:31:34;;;;;;;15.70;7.65;;;;;;;12.05;63.77;101768.97;349451;28;1026;-67
2021/03/04 00:31:45;;;;;;;15.00;7.55;;;;;;;12.02;64.00;101769.09;349346;28;1057;-66
2021/03/04 00:31:56;;;;;;;14.82;7.47;;;;;;;11.99;64.48;101768.31;350382;28;1106;-65
2021/03/04 00:32:08;;;;;;;15.18;7.47;;;;;;;11.97;64.25;101775.47;350818;28;1166;-65
2021/03/04 00:32:19;;;;;;;14.30;7.50;;;;;;;11.97;63.31;101773.69;350656;28;1164;-65
2021/03/04 00:32:30;;;;;;;16.38;7.40;;;;;;;11.95;64.16;101766.72;350740;28;1091;-66
2021/03/04 00:32:42;;;;;;;17.23;7.60;;;;;;;12.00;65.03;101770.91;350745;28;1159;-65
2021/03/04 00:32:54;;;;;;;15.88;7.47;;;;;;;12.02;65.23;101769.09;350751;28;1166;-65
2021/03/04 00:33:06;;;;;;;14.35;7.80;;;;;;;12.02;65.95;101761.16;349419;28;1167;-65
2021/03/04 00:33:17;;;;;;;15.80;7.72;;;;;;;12.05;64.83;101766.31;349772;28;1712;-66
2021/03/04 00:33:28;;;;;;;15.52;8.07;;;;;;;12.09;64.45;101771.50;350787;28;1122;-66
2021/03/04 00:33:40;;;;;;;13.73;8.00;;;;;;;12.05;64.23;101768.97;349379;28;1126;-65
2021/03/04 00:33:51;;;;;;;13.85;7.90;;;;;;;12.06;64.09;101764.53;349384;28;1185;-67
2021/03/04 00:34:02;;;;;;;14.32;7.82;;;;;;;12.07;65.41;101771.56;349445;28;1065;-67
2021/03/04 00:34:13;;;;;;;15.52;7.63;;;;;;;12.01;65.05;101769.16;349432;28;1139;-67
2021/03/04 00:34:25;;;;;;;15.55;7.35;;;;;;;11.98;64.52;101763.94;349396;28;1145;-65
2021/03/04 00:34:36;;;;;;;14.55;7.32;;;;;;;12.01;65.71;101770.00;349391;28;1281;-67
2021/03/04 00:34:47;;;;;;;12.65;7.50;;;;;;;12.00;64.39;101765.63;349247;28;1081;-65
2021/03/04 00:34:58;;;;;;;12.80;7.74;;;;;;;12.03;64.47;101767.28;349460;28;1338;-65
2021/03/04 00:35:10;;;;;;;14.88;7.90;;;;;;;12.01;64.59;101771.81;350764;28;1028;-65
2021/03/04 00:35:21;;;;;;;15.23;7.53;;;;;;;12.00;65.53;101772.72;350833;28;1144;-68
2021/03/04 00:35:32;;;;;;;16.67;7.70;;;;;;;11.99;64.19;101770.97;350875;28;1144;-67
2021/03/04 00:35:43;;;;;;;15.43;7.47;;;;;;;12.02;65.50;101769.09;352169;28;1057;-67
2021/03/04 00:35:55;;;;;;;15.25;7.60;;;;;;;11.97;64.69;101768.38;352133;28;1153;-66
2021/03/04 00:36:07;;;;;;;13.30;7.25;;;;;;;11.99;64.69;101771.84;352215;28;1144;-65
2021/03/04 00:36:18;;;;;;;15.52;7.68;;;;;;;12.02;65.58;101762.91;351949;28;1146;-65
2021/03/04 00:36:29;;;;;;;16.67;7.95;;;;;;;12.03;64.98;101768.19;350845;28;1061;-65
2021/03/04 00:36:40;;;;;;;17.65;8.07;;;;;;;12.05;65.31;101773.41;350953;28;1096;-66
2021/03/04 00:36:51;;;;;;;14.52;7.84;;;;;;;12.00;65.51;101770.91;350783;28;1212;-65
2021/03/04 00:37:02;;;;;;;13.95;7.45;;;;;;;11.98;65.49;101766.59;350860;28;1106;-65
2021/03/04 00:37:14;;;;;;;13.63;7.60;;;;;;;11.99;65.89;101769.22;350948;28;1158;-66
2021/03/04 00:37:25;;;;;;;14.35;7.85;;;;;;;12.01;64.20;101767.34;350905;28;1084;-65
2021/03/04 00:37:37;;;;;;;15.25;8.15;;;;;;;12.03;64.23;101767.28;350749;28;1158;-65
2021/03/04 00:37:48;;;;;;;14.32;8.10;;;;;;;12.05;65.60;101766.31;350929;28;1052;-65
2021/03/04 00:37:59;;;;;;;15.25;7.93;;;;;;;12.05;64.16;101758.38;350924;28;1259;-65
2021/03/04 00:38:11;;;;;;;15.45;7.70;;;;;;;12.05;64.40;101763.69;350928;28;1672;-66
2021/03/04 00:38:22;;;;;;;16.10;8.00;;;;;;;12.08;64.70;101773.28;350803;28;1147;-67
2021/03/04 00:38:33;;;;;;;15.63;7.63;;;;;;;12.09;64.37;101758.25;350831;28;1133;-65
2021/03/04 00:38:44;;;;;;;15.57;7.72;;;;;;;12.07;65.66;101768.06;350874;28;1150;-66
2021/03/04 00:38:55;;;;;;;15.30;8.20;;;;;;;12.08;65.01;101764.50;350867;28;1282;-65
2021/03/04 00:39:08;;;;;;;14.80;8.00;;;;;;;12.01;65.68;101767.34;350848;28;1144;-66
2021/03/04 00:39:19;;;;;;;13.27;7.55;;;;;;;12.00;65.31;101765.63;350814;28;1040;-66
2021/03/04 00:39:30;;;;;;;12.77;7.57;;;;;;;11.99;64.36;101765.69;350962;28;2174;-66
2021/03/04 00:39:41;;;;;;;14.82;7.90;;;;;;;11.99;64.99;101763.03;350922;28;1240;-66
2021/03/04 00:39:52;;;;;;;16.38;7.95;;;;;;;12.01;65.77;101772.66;350894;28;1076;-65
2021/03/04 00:40:12;;;;;;;16.90;7.93;;;;;;;12.02;65.74;101766.44;350775;28;1519;-66
2021/03/04 00:40:23;;;;;;;16.42;8.38;;;;;;;12.01;65.84;101767.34;348471;28;72045;-65
2021/03/04 00:40:34;;;;;;;15.25;8.30;;;;;;;12.02;65.42;101771.75;350908;28;1302;-67
2021/03/04 00:40:45;;;;;;;16.52;8.25;;;;;;;12.05;64.26;101770.75;350892;28;1035;-68
2021/03/04 00:40:56;;;;;;;17.50;8.00;;;;;;;12.06;63.97;101767.19;350902;28;1156;-66
2021/03/04 00:41:07;;;;;;;16.52;7.80;;;;;;;12.03;64.02;101760.22;350871;28;1147;-66
2021/03/04 00:41:18;;;;;;;14.85;7.93;;;;;;;11.98;64.97;101772.78;350895;28;1118;-66
2021/03/04 00:41:30;;;;;;;13.85;7.70;;;;;;;11.96;63.81;101765.81;350939;28;1140;-66
2021/03/04 00:41:41;;;;;;;15.77;7.95;;;;;;;11.96;65.52;101769.28;350912;28;1256;-66
2021/03/04 00:41:52;;;;;;;16.15;7.93;;;;;;;11.94;64.16;101764.94;350934;28;1110;-65
2021/03/04 00:42:04;;;;;;;14.85;7.85;;;;;;;11.95;64.77;101766.72;350801;28;1173;-67
2021/03/04 00:42:15;;;;;;;15.70;7.93;;;;;;;11.95;64.39;101766.72;350796;28;1134;-66
2021/03/04 00:42:26;;;;;;;15.13;8.27;;;;;;;11.94;64.99;101768.50;350892;28;1117;-66
2021/03/04 00:42:38;;;;;;;13.40;8.25;;;;;;;11.91;64.60;101765.94;350946;28;1065;-66
2021/03/04 00:42:50;;;;;;;13.93;8.27;;;;;;;11.95;64.13;101767.59;350804;28;1224;-66
2021/03/04 00:43:01;;;;;;;14.48;8.10;;;;;;;11.95;64.47;101767.59;350826;28;1118;-66
2021/03/04 00:43:12;;;;;;;15.25;8.25;;;;;;;11.93;65.59;101766.75;350845;28;1064;-66
2021/03/04 00:43:24;;;;;;;15.68;7.95;;;;;;;11.91;64.77;101771.25;350873;28;1141;-66
2021/03/04 00:43:36;;;;;;;14.85;7.60;;;;;;;11.94;65.06;101771.16;350941;28;1136;-66
2021/03/04 00:43:47;;;;;;;16.00;7.65;;;;;;;11.95;65.17;101766.72;350861;28;1146;-65
2021/03/04 00:43:58;;;;;;;14.85;7.75;;;;;;;11.96;64.67;101777.25;350722;28;1130;-66
2021/03/04 00:44:09;;;;;;;13.48;7.60;;;;;;;11.95;65.76;101762.31;350898;28;1183;-65
2021/03/04 00:44:20;;;;;;;11.88;7.90;;;;;;;11.96;65.16;101773.75;350932;28;1224;-67
2021/03/04 00:44:31;;;;;;;13.52;8.10;;;;;;;11.97;64.99;101765.75;350942;28;1068;-66
2021/03/04 00:44:42;;;;;;;14.23;8.10;;;;;;;11.99;65.42;101771.84;350939;28;1168;-66
2021/03/04 00:44:54;;;;;;;15.00;7.82;;;;;;;11.99;65.49;101769.22;350667;28;1096;-66
2021/03/04 00:45:09;;;;;;;14.30;8.00;;;;;;;11.98;64.44;101771.88;350777;28;1069;-66
2021/03/04 00:45:24;;;;;;;15.73;8.18;;;;;;;11.97;65.96;101770.19;349284;28;49147;-66
2021/03/04 00:45:51;;;;;;;14.35;8.15;;;;;;;11.97;65.82;101768.38;348345;28;71352;-65
2021/03/04 00:46:03;;;;;;;15.50;8.35;;;;;;;11.97;65.11;101768.38;350820;28;1119;-66
2021/03/04 00:46:14;;;;;;;15.07;8.45;;;;;;;11.92;65.49;101767.66;350912;28;1142;-65
2021/03/04 00:46:25;;;;;;;13.82;8.07;;;;;;;11.88;65.43;101771.34;350946;28;1190;-66
2021/03/04 00:46:38;;;;;;;14.04;7.74;;;;;;;11.87;65.19;101764.34;350939;28;1168;-66
2021/03/04 00:46:49;;;;;;;14.25;7.82;;;;;;;11.88;65.34;101776.63;350632;28;1106;-66
2021/03/04 00:47:01;;;;;;;15.60;8.00;;;;;;;11.87;64.53;101774.91;350758;28;1100;-64
2021/03/04 00:47:12;;;;;;;15.60;7.85;;;;;;;11.87;65.21;101766.97;349433;28;1093;-66
2021/03/04 00:47:23;;;;;;;15.63;7.75;;;;;;;11.88;65.21;101771.34;349444;28;1169;-66
2021/03/04 00:47:35;;;;;;;14.70;7.88;;;;;;;11.87;65.35;101770.47;349325;28;1088;-66
2021/03/04 00:47:46;;;;;;;15.05;7.93;;;;;;;11.80;64.51;101770.75;349189;28;984;-65
2021/03/04 00:47:57;;;;;;;13.65;7.82;;;;;;;11.75;64.80;101770.06;347947;28;1973;-66
2021/03/04 00:48:09;;;;;;;15.18;8.05;;;;;;;11.69;64.93;101779.94;348010;28;1054;-66
2021/03/04 00:48:21;;;;;;;15.38;8.20;;;;;;;11.75;65.97;101770.06;348028;28;1077;-67
2021/03/04 00:48:32;;;;;;;17.67;8.48;;;;;;;11.78;65.85;101773.44;348002;28;1045;-65
2021/03/04 00:48:43;;;;;;;16.30;8.30;;;;;;;11.77;64.83;101771.72;348397;28;1065;-66
2021/03/04 00:48:55;;;;;;;14.13;8.10;;;;;;;11.78;64.59;101775.25;349351;28;1160;-65
2021/03/04 00:49:06;;;;;;;13.15;7.80;;;;;;;11.75;64.75;101775.34;348325;28;1196;-66
2021/03/04 00:49:17;;;;;;;14.77;8.10;;;;;;;11.75;64.95;101770.91;349453;28;1029;-65
2021/03/04 00:49:28;;;;;;;15.25;8.15;;;;;;;11.70;64.18;101768.44;349367;28;1204;-66
2021/03/04 00:49:39;;;;;;;15.18;7.78;;;;;;;11.65;64.61;101769.50;349296;28;1139;-65
2021/03/04 00:49:51;;;;;;;14.95;7.57;;;;;;;11.65;65.18;101764.22;349651;28;2091;-65
2021/03/04 00:50:06;;;;;;;14.68;7.47;;;;;;;11.69;64.84;101766.72;350792;28;1069;-66
2021/03/04 00:50:18;;;;;;;15.00;7.68;;;;;;;11.67;64.70;101767.69;348322;28;70926;-66
2021/03/04 00:50:29;;;;;;;16.83;8.02;;;;;;;11.61;64.86;101766.13;350669;28;1048;-65
2021/03/04 00:50:41;;;;;;;16.02;7.97;;;;;;;11.65;65.40;101770.38;350746;28;1095;-67
2021/03/04 00:50:53;;;;;;;15.52;8.00;;;;;;;11.69;64.38;101763.19;350733;28;1124;-66
2021/03/04 00:51:04;;;;;;;15.10;8.23;;;;;;;11.71;65.67;101764.84;350804;28;1144;-66
2021/03/04 00:51:15;;;;;;;14.65;8.05;;;;;;;11.76;64.85;101769.13;350832;28;1213;-66
2021/03/04 00:51:27;;;;;;;14.48;7.70;;;;;;;11.77;65.72;101765.56;350835;28;1108;-66
2021/03/04 00:51:38;;;;;;;15.35;7.57;;;;;;;11.76;66.49;101766.47;350894;28;1168;-67
2021/03/04 00:51:50;;;;;;;15.30;7.95;;;;;;;11.75;66.24;101759.47;350968;28;1113;-67
2021/03/04 00:52:01;;;;;;;16.45;8.38;;;;;;;11.64;64.31;101763.34;350872;28;1076;-67
2021/03/04 00:52:12;;;;;;;15.90;8.20;;;;;;;11.47;65.20;101771.88;350923;28;1061;-67
2021/03/04 00:52:23;;;;;;;15.35;7.80;;;;;;;11.37;65.35;101760.75;350866;28;1092;-67
2021/03/04 00:52:34;;;;;;;13.50;7.45;;;;;;;11.43;64.64;101770.25;350901;28;1234;-67
2021/03/04 00:52:46;;;;;;;14.32;7.95;;;;;;;11.48;64.51;101770.09;350693;28;1423;-67
2021/03/04 00:52:57;;;;;;;15.43;8.27;;;;;;;11.50;64.44;101769.13;350769;28;1077;-67
2021/03/04 00:53:08;;;;;;;15.82;8.50;;;;;;;11.52;65.60;101755.84;350841;28;1167;-67
2021/03/04 00:53:20;;;;;;;14.68;8.48;;;;;;;11.51;65.15;101764.69;350804;28;1126;-67
2021/03/04 00:53:31;;;;;;;14.30;8.50;;;;;;;11.53;64.54;101761.06;350872;28;1126;-68
2021/03/04 00:53:42;;;;;;;14.48;8.82;;;;;;;11.55;65.77;101766.31;350882;28;1153;-67
2021/03/04 00:53:53;;;;;;;14.45;8.30;;;;;;;11.57;64.85;101758.31;350856;28;1248;-67
2021/03/04 00:54:07;;;;;;;17.00;8.18;;;;;;;11.58;65.09;101757.41;350903;28;1220;-66
2021/03/04 00:54:18;;;;;;;17.98;8.20;;;;;;;11.58;65.18;101760.06;350009;28;23785;-68
2021/03/04 00:54:29;;;;;;;16.58;8.23;;;;;;;11.60;65.50;101772.31;350892;28;1201;-67
2021/03/04 00:54:40;;;;;;;15.95;8.25;;;;;;;11.60;65.25;101764.38;350776;28;1221;-68
2021/03/04 00:54:51;;;;;;;15.32;8.18;;;;;;;11.61;66.59;101766.13;350705;28;1190;-66